createdAt,value
2022-08-03T00:01:30.421Z,96051.94
2022-08-03T00:03:58.150Z,96034.63
2022-08-03T00:06:27.243Z,96061.56
2022-08-03T00:08:54.964Z,96061.53
2022-08-03T00:11:24.840Z,96060.41
2022-08-03T00:13:52.521Z,96055.31
2022-08-03T00:16:20.570Z,96059.81
2022-08-03T00:18:50.786Z,96041.56
2022-08-03T00:21:18.521Z,96055.97
2022-08-03T00:23:51.342Z,96057.31
2022-08-03T00:26:20.485Z,96040.31
2022-08-03T00:28:48.274Z,96061.31
2022-08-03T00:31:15.928Z,96060.19
2022-08-03T00:33:58.341Z,96056.16
2022-08-03T00:36:27.546Z,96064.19
2022-08-03T00:38:56.785Z,96057.91
2022-08-03T00:41:24.491Z,96057.91
2022-08-03T00:43:52.239Z,96052.63
2022-08-03T00:46:22.209Z,96057.44
2022-08-03T00:48:50.301Z,96062.19
2022-08-03T00:51:18.253Z,96061.59
2022-08-03T00:53:48.253Z,96046.88
2022-08-03T00:56:18.239Z,96054.44
2022-08-03T00:58:47.328Z,96064.91
2022-08-03T01:01:16.155Z,96050.09
2022-08-03T01:03:45.413Z,96064.63
2022-08-03T01:06:18.669Z,96046.78
2022-08-03T01:08:54.372Z,96048.63
2022-08-03T01:11:33.632Z,96057.72
2022-08-03T01:14:19.376Z,96053.84
2022-08-03T01:16:55.882Z,96052.13
2022-08-03T01:19:46.333Z,96048.53
2022-08-03T01:22:36.295Z,96052.78
2022-08-03T01:25:09.481Z,96034.63
2022-08-03T01:27:51.162Z,96041.66
2022-08-03T01:30:20.445Z,96045.94
2022-08-03T01:33:02.618Z,96013.81
2022-08-03T01:35:35.521Z,96042.66
2022-08-03T01:38:10.948Z,96028.13
2022-08-03T01:40:42.286Z,96035.13
2022-08-03T01:43:13.428Z,96043.00
2022-08-03T01:45:44.890Z,96039.09
2022-08-03T01:48:14.512Z,96021.59
2022-08-03T01:50:43.584Z,96037.09
2022-08-03T01:53:15.512Z,96029.28
2022-08-03T01:55:44.339Z,96033.81
2022-08-03T01:58:14.749Z,96006.16
2022-08-03T02:00:50.063Z,96015.66
2022-08-03T02:03:19.521Z,96028.84
2022-08-03T02:05:49.933Z,96036.34
2022-08-03T02:08:25.138Z,96031.00
2022-08-03T02:10:53.723Z,96033.84
2022-08-03T02:13:23.049Z,96026.16
2022-08-03T02:15:53.349Z,96036.97
2022-08-03T02:18:22.783Z,96035.91
2022-08-03T02:20:51.536Z,96031.06
2022-08-03T02:23:19.897Z,96021.69
2022-08-03T02:25:52.023Z,96034.06
2022-08-03T02:28:23.211Z,96040.63
2022-08-03T02:30:55.897Z,96036.09
2022-08-03T02:33:28.147Z,96035.63
2022-08-03T02:35:58.994Z,96042.69
2022-08-03T02:38:35.546Z,96039.09
2022-08-03T08:42:20.627Z,96054.16
2022-08-03T08:44:49.726Z,96052.25
2022-08-03T08:47:19.783Z,96054.78
2022-08-03T08:50:08.936Z,96053.25
2022-08-03T08:52:42.128Z,96052.50
2022-08-03T08:55:11.634Z,96046.44
2022-08-03T08:57:43.792Z,96034.44
2022-08-03T09:00:14.521Z,96042.91
2022-08-03T09:02:44.430Z,96043.66
2022-08-03T09:05:13.366Z,96047.16
2022-08-03T09:07:41.227Z,96044.53
2022-08-03T09:10:13.493Z,96051.22
2022-08-03T09:12:44.702Z,96048.50
2022-08-03T09:15:25.345Z,96039.59
2022-08-03T09:17:55.071Z,96039.94
2022-08-03T09:20:25.466Z,96044.25
2022-08-03T09:22:56.278Z,96044.34
2022-08-03T09:25:34.759Z,96040.13
2022-08-03T09:28:08.435Z,96029.28
2022-08-03T09:30:38.590Z,96045.28
2022-08-03T09:33:08.397Z,96035.91
2022-08-03T09:35:58.028Z,96044.78
2022-08-03T09:38:27.444Z,96021.53
2022-08-03T09:41:00.109Z,96030.19
2022-08-03T09:43:28.609Z,96030.22
2022-08-03T09:46:07.295Z,96034.25
2022-08-03T09:48:36.773Z,96045.03
2022-08-03T09:51:13.827Z,96038.47
2022-08-03T09:53:59.428Z,96041.19
2022-08-03T09:56:40.529Z,96035.47
2022-08-03T09:59:08.296Z,96035.06
2022-08-03T10:01:39.589Z,96045.09
2022-08-03T10:04:07.291Z,96034.69
2022-08-03T10:06:35.046Z,96033.53
2022-08-03T10:09:08.119Z,96032.75
2022-08-03T10:11:40.914Z,96021.94
2022-08-03T10:14:10.905Z,96011.50
2022-08-03T10:16:41.163Z,96032.78
2022-08-03T10:19:10.584Z,96021.97
2022-08-03T10:21:40.163Z,96025.41
2022-08-03T10:24:10.693Z,96015.75
2022-08-03T10:26:49.788Z,96020.41
2022-08-03T10:29:24.376Z,96027.75
2022-08-03T10:31:58.404Z,96012.25
2022-08-03T10:34:28.407Z,96019.94
2022-08-03T10:37:00.180Z,96016.78
2022-08-03T10:39:30.541Z,96000.19
2022-08-03T10:42:00.038Z,96000.88
2022-08-03T10:44:34.903Z,96013.94
2022-08-03T10:47:05.492Z,96010.84
2022-08-03T10:49:35.619Z,95997.66
2022-08-03T10:52:12.956Z,96003.03
2022-08-03T10:54:57.042Z,96001.00
2022-08-03T10:57:48.866Z,95995.94
2022-08-03T11:00:19.169Z,95988.03
2022-08-03T11:03:09.973Z,95989.22
2022-08-03T11:05:42.888Z,95991.44
2022-08-03T11:08:28.965Z,95987.47
2022-08-03T11:10:59.401Z,95984.34
2022-08-03T11:13:30.949Z,95997.88
2022-08-03T11:16:21.866Z,95993.19
2022-08-03T11:18:59.561Z,95982.41
2022-08-03T11:21:58.867Z,95987.31
2022-08-03T11:24:58.224Z,95976.56
2022-08-03T11:27:27.973Z,95980.66
2022-08-03T11:29:57.734Z,95975.94
2022-08-03T11:32:54.487Z,95973.75
2022-08-03T11:35:25.543Z,95978.38
2022-08-03T11:38:05.309Z,95979.44
2022-08-03T11:40:38.689Z,95975.06
2022-08-03T11:43:08.004Z,95973.53
2022-08-03T11:45:36.410Z,95970.34
2022-08-03T11:48:15.430Z,95969.38
2022-08-03T11:50:46.210Z,95964.03
2022-08-03T11:53:18.183Z,95965.81
2022-08-03T11:55:48.910Z,95970.25
2022-08-03T11:59:00.814Z,95972.06
2022-08-03T12:01:07.119Z,95957.47
2022-08-03T12:03:36.279Z,95958.69
2022-08-03T12:06:10.826Z,95957.38
2022-08-03T12:08:38.527Z,95952.34
2022-08-03T12:11:08.860Z,95961.34
2022-08-03T12:14:36.708Z,95952.00
2022-08-03T12:16:29.663Z,95944.03
2022-08-03T12:18:59.440Z,95951.16
2022-08-03T12:21:28.925Z,95948.25
2022-08-03T12:24:00.756Z,95945.53
2022-08-03T12:26:29.341Z,95936.72
2022-08-03T12:28:57.523Z,95947.88
2022-08-03T12:31:25.696Z,95936.31
2022-08-03T12:34:02.686Z,95939.44
2022-08-03T12:36:33.357Z,95938.63
2022-08-03T12:39:04.171Z,95929.44
2022-08-03T12:41:35.470Z,95926.47
2022-08-03T12:44:04.379Z,95910.66
2022-08-03T12:46:42.717Z,95914.94
2022-08-03T12:49:15.457Z,95920.03
2022-08-03T12:52:03.901Z,95912.69
2022-08-03T12:54:36.057Z,95927.50
2022-08-03T12:57:05.432Z,95924.78
2022-08-03T12:59:40.716Z,95924.00
2022-08-03T13:02:16.794Z,95906.28
2022-08-03T13:04:47.418Z,95918.63
2022-08-03T13:07:19.385Z,95905.13
2022-08-03T13:09:48.904Z,95900.50
2022-08-03T13:12:18.354Z,95920.09
2022-08-03T13:14:47.402Z,95904.91
2022-08-03T13:17:16.776Z,95904.97
2022-08-03T13:19:46.433Z,95910.72
2022-08-03T13:22:16.728Z,95914.13
2022-08-03T13:24:45.726Z,95912.47
2022-08-03T13:28:00.005Z,95914.50
2022-08-03T13:30:03.879Z,95911.56
2022-08-03T13:32:31.848Z,95913.56
2022-08-03T13:34:59.560Z,95913.88
2022-08-03T13:37:28.619Z,95911.16
2022-08-03T13:39:59.558Z,95908.50
2022-08-03T13:42:30.528Z,95910.81
2022-08-03T13:44:58.750Z,95908.81
2022-08-03T13:47:26.522Z,95896.97
2022-08-03T13:50:00.385Z,95899.22
2022-08-03T13:52:32.299Z,95889.34
2022-08-03T13:55:00.353Z,95884.56
2022-08-03T13:58:03.563Z,95896.53
2022-08-03T14:00:26.944Z,95883.72
2022-08-03T14:03:06.614Z,95882.50
2022-08-03T14:05:38.299Z,95878.34
2022-08-03T14:08:08.171Z,95875.16
2022-08-03T14:10:36.847Z,95876.72
2022-08-03T14:13:05.221Z,95874.91
2022-08-03T14:15:37.690Z,95846.00
2022-08-03T14:18:06.592Z,95870.38
2022-08-03T14:20:37.926Z,95875.84
2022-08-03T14:23:08.673Z,95877.94
2022-08-03T14:25:50.000Z,95869.47
2022-08-03T14:28:18.963Z,95870.06
2022-08-03T14:30:46.688Z,95852.78
2022-08-03T14:33:14.340Z,95847.41
2022-08-03T14:35:42.021Z,95866.81
2022-08-03T14:38:11.085Z,95858.59
2022-08-03T14:40:38.828Z,95864.59
2022-08-03T14:43:06.718Z,95850.50
2022-08-03T14:45:37.299Z,95855.53
2022-08-03T14:50:33.073Z,95853.47
2022-08-03T14:50:55.140Z,95860.28
2022-08-03T14:53:24.266Z,95844.22
2022-08-03T14:55:53.416Z,95862.03
2022-08-03T14:58:22.156Z,95845.72
2022-08-03T15:00:50.914Z,95857.25
2022-08-03T15:03:20.364Z,95849.16
2022-08-03T15:05:48.507Z,95857.41
2022-08-03T15:08:16.231Z,95837.13
2022-08-03T15:10:45.724Z,95842.22
2022-08-03T15:13:13.541Z,95840.25
2022-08-03T15:15:42.238Z,95835.38
2022-08-03T15:18:10.482Z,95840.72
2022-08-03T15:20:44.940Z,95835.69
2022-08-03T15:23:15.135Z,95831.31
2022-08-03T15:26:28.677Z,95839.22
2022-08-03T15:28:32.126Z,95841.97
2022-08-03T15:30:59.854Z,95850.84
2022-08-03T15:33:27.707Z,95840.66
2022-08-03T15:35:56.207Z,95839.94
2022-08-03T15:38:25.806Z,95835.00
2022-08-03T15:40:54.452Z,95837.00
2022-08-03T15:43:22.238Z,95833.69
2022-08-03T15:46:19.037Z,95822.06
2022-08-03T15:48:39.211Z,95831.28
2022-08-03T15:51:07.269Z,95835.22
2022-08-03T15:53:38.219Z,95832.56
2022-08-03T15:56:13.290Z,95839.25
2022-08-03T15:59:10.360Z,95832.63
2022-08-03T16:01:32.838Z,95829.31
2022-08-03T16:04:00.623Z,95825.41
2022-08-03T16:06:35.300Z,95813.59
2022-08-03T16:09:22.910Z,95825.75
2022-08-03T16:11:54.428Z,95824.34
2022-08-03T16:14:32.709Z,95829.88
2022-08-03T16:17:05.229Z,95813.69
2022-08-03T16:19:32.956Z,95816.00
2022-08-03T16:22:01.250Z,95814.94
2022-08-03T16:24:28.964Z,95812.50
2022-08-03T16:26:56.702Z,95816.53
2022-08-03T16:29:24.474Z,95816.75
2022-08-03T16:31:53.343Z,95820.66
2022-08-03T16:34:22.371Z,95817.47
2022-08-03T16:36:50.060Z,95808.16
2022-08-03T16:39:18.887Z,95819.72
2022-08-03T16:41:54.360Z,95816.47
2022-08-03T16:44:29.641Z,95818.06
2022-08-03T16:46:57.357Z,95815.06
2022-08-03T16:49:54.966Z,95806.97
2022-08-03T16:52:14.374Z,95811.31
2022-08-03T16:54:50.617Z,95814.44
2022-08-03T16:57:55.911Z,95812.22
2022-08-03T17:00:10.560Z,95813.41
2022-08-03T17:02:39.386Z,95815.09
2022-08-03T17:05:17.531Z,95783.97
2022-08-03T17:07:50.639Z,95806.44
2022-08-03T17:10:26.983Z,95823.50
2022-08-03T17:12:58.067Z,95814.66
2022-08-03T17:15:38.328Z,95821.75
2022-08-03T17:18:18.180Z,95824.59
2022-08-03T17:20:52.784Z,95829.97
2022-08-03T17:23:34.300Z,95827.66
2022-08-03T17:26:08.236Z,95815.38
2022-08-03T17:28:50.148Z,95809.72
2022-08-03T17:31:32.039Z,95822.56
2022-08-03T17:34:01.958Z,95827.28
2022-08-03T17:37:02.204Z,95827.16
2022-08-03T17:39:41.888Z,95832.59
2022-08-03T17:42:30.657Z,95843.28
2022-08-03T17:45:02.191Z,95835.66
2022-08-03T17:47:42.671Z,95833.00
2022-08-03T17:50:24.067Z,95830.34
2022-08-03T17:53:07.937Z,95833.97
2022-08-03T17:55:56.582Z,95838.63
2022-08-03T17:58:41.213Z,95843.00
2022-08-03T18:02:02.589Z,95854.28
2022-08-03T18:04:29.683Z,95853.59
2022-08-03T18:06:59.901Z,95859.84
2022-08-03T18:10:05.906Z,95858.34
2022-08-03T18:12:27.757Z,95870.38
2022-08-03T18:15:01.532Z,95877.81
2022-08-03T18:17:58.203Z,95867.03
2022-08-03T18:20:34.072Z,95863.97
2022-08-03T18:23:07.231Z,95865.50
2022-08-03T18:25:44.917Z,95862.03
2022-08-03T18:28:23.242Z,95863.97
2022-08-03T18:30:54.411Z,95867.50
2022-08-03T18:34:17.133Z,95873.34
2022-08-03T18:36:17.853Z,95873.34
2022-08-03T18:38:48.075Z,95876.09
2022-08-03T18:41:32.871Z,95876.50
2022-08-03T18:44:06.838Z,95879.63
2022-08-03T18:46:46.361Z,95883.50
2022-08-03T18:49:29.211Z,95878.06
2022-08-03T18:52:03.659Z,95885.81
2022-08-03T18:54:58.258Z,95887.31
2022-08-03T18:57:37.996Z,95887.31
2022-08-03T19:00:10.509Z,95888.81
2022-08-03T19:02:48.652Z,95881.78
2022-08-03T19:05:20.352Z,95881.81
2022-08-03T19:07:59.588Z,95888.69
2022-08-03T19:10:34.573Z,95884.03
2022-08-03T19:13:11.454Z,95877.84
2022-08-03T19:15:51.506Z,95887.81
2022-08-03T19:18:21.916Z,95888.94
2022-08-03T19:20:54.817Z,95875.69
2022-08-03T19:23:25.936Z,95891.16
2022-08-03T19:26:00.114Z,95893.53
2022-08-03T19:28:31.019Z,95892.34
2022-08-03T19:31:02.694Z,95891.94
2022-08-03T19:33:55.987Z,95899.34
2022-08-03T19:36:27.263Z,95887.66
2022-08-03T19:38:59.744Z,95900.09
2022-08-03T19:41:42.180Z,95897.06
2022-08-03T19:44:20.437Z,95893.97
2022-08-03T19:46:54.962Z,95909.06
2022-08-03T19:49:57.094Z,95912.97
2022-08-03T19:52:16.679Z,95904.13
2022-08-03T19:54:54.654Z,95897.13
2022-08-03T19:57:24.687Z,95897.19
2022-08-03T19:59:55.019Z,95903.00
2022-08-03T20:02:26.694Z,95895.66
2022-08-03T20:04:55.318Z,95899.53
2022-08-03T20:07:24.718Z,95897.66
2022-08-03T20:09:56.611Z,95896.94
2022-08-03T20:12:27.614Z,95897.31
2022-08-03T20:14:58.861Z,95885.69
2022-08-03T20:17:55.606Z,95899.97
2022-08-03T20:20:20.166Z,95901.88
2022-08-03T20:22:53.584Z,95888.69
2022-08-03T20:25:38.228Z,95904.94
2022-08-03T20:28:14.455Z,95899.53
2022-08-03T20:30:47.125Z,95889.50
2022-08-03T20:33:18.729Z,95901.88
2022-08-03T20:35:49.200Z,95902.66
2022-08-03T20:38:17.497Z,95891.84
2022-08-03T20:40:46.473Z,95892.59
2022-08-03T20:43:14.397Z,95895.66
2022-08-03T20:48:33.614Z,95893.34
2022-08-03T20:51:01.781Z,95890.28
2022-08-03T20:53:57.411Z,95883.28
2022-08-03T20:56:20.445Z,95896.81
2022-08-03T20:58:50.181Z,95887.53
2022-08-03T21:01:27.738Z,95884.47
2022-08-03T21:03:56.062Z,95868.56
2022-08-03T21:06:27.939Z,95877.03
2022-08-03T21:09:05.198Z,95867.78
2022-08-03T21:11:41.942Z,95878.22
2022-08-03T21:13:07.322Z,95910.38
2022-08-03T21:14:16.481Z,95876.25
2022-08-03T21:16:46.718Z,95892.84
2022-08-03T21:19:18.444Z,95883.16
2022-08-03T21:21:49.108Z,95895.44
2022-08-03T21:24:22.898Z,95895.75
2022-08-03T21:26:54.931Z,95872.88
2022-08-03T21:29:23.312Z,95890.56
2022-08-03T21:31:52.737Z,95893.97
2022-08-03T21:34:21.939Z,95892.06
2022-08-03T21:36:50.600Z,95884.59
2022-08-03T21:39:18.903Z,95889.66
2022-08-03T21:41:53.028Z,95898.44
2022-08-03T21:44:28.698Z,95883.03
2022-08-03T21:47:00.195Z,95870.28
2022-08-03T21:50:04.514Z,95871.47
2022-08-03T21:52:23.217Z,95873.41
2022-08-03T21:54:52.284Z,95867.53
2022-08-03T21:57:23.380Z,95870.72
2022-08-03T21:59:55.467Z,95889.31
2022-08-03T22:02:28.383Z,95880.31
2022-08-03T22:04:59.621Z,95857.88
2022-08-03T22:07:29.671Z,95879.59
2022-08-03T22:09:59.577Z,95880.03
2022-08-03T22:12:32.534Z,95885.03
2022-08-03T22:15:02.887Z,95857.25
2022-08-03T22:17:55.384Z,95872.72
2022-08-03T22:20:23.541Z,95870.81
2022-08-03T22:22:56.580Z,95884.28
2022-08-03T22:25:28.934Z,95882.63
2022-08-03T22:27:58.306Z,95871.34
2022-08-03T22:30:26.840Z,95869.69
2022-08-03T22:32:57.954Z,95867.72
2022-08-03T22:35:27.767Z,95868.97
2022-08-03T22:37:56.860Z,95875.50
2022-08-03T22:40:27.856Z,95867.72
2022-08-03T22:42:56.053Z,95878.09
2022-08-03T22:46:06.876Z,95873.78
2022-08-03T22:48:17.710Z,95880.31
2022-08-03T22:50:46.379Z,95872.00
2022-08-03T22:53:17.349Z,95875.78
2022-08-03T22:55:45.777Z,95856.03
2022-08-03T22:58:16.847Z,95856.09
2022-08-03T23:00:53.595Z,95879.63
2022-08-03T23:03:59.763Z,95852.31
2022-08-03T23:06:20.098Z,95857.81
2022-08-03T23:08:48.749Z,95872.09
2022-08-03T23:11:19.357Z,95860.31
2022-08-03T23:13:48.481Z,95886.31
2022-08-03T23:16:28.954Z,95866.28
2022-08-03T23:18:59.659Z,95884.31
2022-08-03T23:21:53.971Z,95854.28
2022-08-03T23:24:29.390Z,95888.41
2022-08-03T23:26:59.432Z,95866.44
2022-08-03T23:29:29.844Z,95876.19
2022-08-03T23:31:59.793Z,95860.59
2022-08-03T23:34:47.332Z,95878.56
2022-08-03T23:37:16.107Z,95885.19
2022-08-03T23:39:49.800Z,95890.56
2022-08-03T23:42:20.888Z,95880.47
2022-08-03T23:44:55.744Z,95860.19
2022-08-03T23:47:24.653Z,95851.59
2022-08-03T23:50:15.050Z,95861.03
2022-08-03T23:52:57.218Z,95865.63
2022-08-03T23:55:45.800Z,95857.28
2022-08-03T23:58:31.787Z,95856.88
